Time;durP1;ratioP1;P1;durP2;ratioP2;P2;SDS_P1;SDS_P2;PMS_P1;PMS_P2;Temp;Humidity;BMP_temperature;BMP_pressure;BME280_temperature;BME280_humidity;BME280_pressure;Samples;Min_cycle;Max_cycle;Signal;HPM_P1;HPM_P2
2021/05/10 00:01:20;;;;;;;2.08;1.08;;;24.90;36.80;;;;;;1488284;39;20071;-61
2021/05/10 00:02:41;;;;;;;1.10;0.90;;;24.90;36.90;;;;;;1489345;39;20036;-60
2021/05/10 00:04:02;;;;;;;1.35;1.00;;;24.90;37.00;;;;;;1491578;39;20047;-60
2021/05/10 00:05:23;;;;;;;1.05;0.80;;;24.90;36.90;;;;;;1490514;39;20136;-62
2021/05/10 00:06:44;;;;;;;3.38;0.98;;;24.90;36.90;;;;;;1490159;39;20024;-61
2021/05/10 00:08:07;;;;;;;2.35;1.10;;;24.90;36.90;;;;;;1491129;39;20040;-62
2021/05/10 00:09:28;;;;;;;2.13;1.05;;;24.90;36.80;;;;;;1491344;39;20028;-61
2021/05/10 00:10:49;;;;;;;1.10;0.82;;;24.90;36.80;;;;;;1489575;39;20082;-61
2021/05/10 00:12:12;;;;;;;3.25;1.25;;;24.90;36.90;;;;;;1489431;39;20028;-61
2021/05/10 00:13:34;;;;;;;3.35;1.05;;;24.90;36.90;;;;;;1488750;39;20134;-61
2021/05/10 00:14:55;;;;;;;1.45;0.90;;;24.90;37.50;;;;;;1490584;39;20360;-61
2021/05/10 00:16:16;;;;;;;1.60;1.10;;;24.90;36.90;;;;;;1490654;39;20038;-62
2021/05/10 00:17:36;;;;;;;2.72;1.02;;;24.90;37.00;;;;;;1491382;39;20112;-62
2021/05/10 00:18:58;;;;;;;2.90;1.10;;;24.90;36.90;;;;;;1490826;39;20035;-62
2021/05/10 00:20:19;;;;;;;2.15;1.13;;;24.90;37.10;;;;;;1486986;40;20351;-61
2021/05/10 00:21:39;;;;;;;2.20;1.10;;;24.90;37.10;;;;;;1489344;39;20103;-61
2021/05/10 00:23:01;;;;;;;2.38;1.13;;;24.90;37.10;;;;;;1489412;39;20277;-61
2021/05/10 00:24:22;;;;;;;3.20;1.15;;;24.80;37.00;;;;;;1489563;39;20112;-60
2021/05/10 00:25:43;;;;;;;3.80;1.10;;;24.90;36.80;;;;;;1487680;39;20036;-60
2021/05/10 00:27:04;;;;;;;2.38;1.05;;;24.80;36.70;;;;;;1489843;39;20027;-61
2021/05/10 00:28:25;;;;;;;2.08;1.02;;;24.80;36.70;;;;;;1490412;39;20445;-60
2021/05/10 00:29:46;;;;;;;2.70;1.15;;;24.80;36.60;;;;;;1490127;39;20044;-60
2021/05/10 00:31:07;;;;;;;1.65;0.98;;;24.80;36.50;;;;;;1491662;39;20139;-62
2021/05/10 00:32:28;;;;;;;3.72;1.15;;;24.80;36.50;;;;;;1487781;39;20028;-61
2021/05/10 00:33:49;;;;;;;2.55;1.00;;;24.80;36.40;;;;;;1488333;39;20051;-61
2021/05/10 00:35:10;;;;;;;1.60;0.85;;;24.80;36.40;;;;;;1489494;39;20394;-59
2021/05/10 00:36:31;;;;;;;2.92;0.90;;;24.80;36.30;;;;;;1489484;39;20047;-60
2021/05/10 00:37:52;;;;;;;1.77;1.05;;;24.80;36.30;;;;;;1489902;39;20360;-59
2021/05/10 00:39:13;;;;;;;1.67;0.80;;;24.80;36.40;;;;;;1489134;39;20053;-60
2021/05/10 00:40:34;;;;;;;2.17;1.00;;;24.80;36.90;;;;;;1490200;39;20092;-61
2021/05/10 00:41:56;;;;;;;1.58;0.95;;;24.80;36.40;;;;;;1489900;39;20351;-61
2021/05/10 00:43:17;;;;;;;1.92;0.98;;;24.80;36.40;;;;;;1489836;39;20036;-61
2021/05/10 00:44:38;;;;;;;1.95;0.90;;;24.80;36.40;;;;;;1491388;39;20646;-61
2021/05/10 00:45:59;;;;;;;2.50;1.33;;;24.80;36.50;;;;;;1489864;39;20055;-61
2021/05/10 00:47:20;;;;;;;1.88;1.00;;;24.80;36.50;;;;;;1488763;39;20043;-60
2021/05/10 00:48:40;;;;;;;1.23;1.10;;;24.80;36.50;;;;;;1491989;39;20578;-60
2021/05/10 00:50:04;;;;;;;1.75;1.00;;;24.80;36.60;;;;;;1492015;39;20038;-60
2021/05/10 00:51:24;;;;;;;2.95;1.00;;;24.80;36.60;;;;;;1491310;39;20075;-60
2021/05/10 00:52:46;;;;;;;1.17;1.00;;;24.80;36.60;;;;;;1489120;39;20032;-60
2021/05/10 00:54:06;;;;;;;1.27;0.82;;;24.80;36.70;;;;;;1489532;39;20076;-59
2021/05/10 00:55:28;;;;;;;1.98;1.00;;;24.80;36.70;;;;;;1490797;39;20433;-60
2021/05/10 00:56:48;;;;;;;2.40;1.13;;;24.80;36.60;;;;;;1489788;39;20112;-60
2021/05/10 00:58:10;;;;;;;3.70;1.05;;;24.70;36.50;;;;;;1490358;39;20035;-60
2021/05/10 00:59:31;;;;;;;3.75;1.13;;;24.70;36.50;;;;;;1491727;39;20024;-60
2021/05/10 01:00:52;;;;;;;4.00;0.95;;;24.70;36.60;;;;;;1490735;39;20197;-61
2021/05/10 01:02:13;;;;;;;3.90;0.93;;;24.70;36.70;;;;;;1489343;39;20477;-61
2021/05/10 01:03:35;;;;;;;1.33;0.88;;;24.70;36.60;;;;;;1491562;39;20043;-61
2021/05/10 01:04:56;;;;;;;2.78;1.15;;;24.70;36.70;;;;;;1490146;39;20042;-61
2021/05/10 01:06:17;;;;;;;4.30;1.38;;;24.60;36.70;;;;;;1491462;39;20120;-61
2021/05/10 01:07:38;;;;;;;3.13;1.00;;;24.60;36.70;;;;;;1490398;39;20030;-61
2021/05/10 01:08:59;;;;;;;2.95;0.90;;;24.60;36.60;;;;;;1488080;39;20025;-61
2021/05/10 01:10:22;;;;;;;3.53;0.90;;;24.60;36.60;;;;;;1491620;39;20024;-61
2021/05/10 01:11:43;;;;;;;1.77;0.70;;;24.60;36.60;;;;;;1488253;39;20036;-59
2021/05/10 01:13:04;;;;;;;2.45;1.00;;;24.50;36.50;;;;;;1490774;39;20023;-60
2021/05/10 01:14:25;;;;;;;2.70;1.00;;;24.60;36.50;;;;;;1490665;39;20024;-60
2021/05/10 01:15:51;;;;;;;1.27;1.02;;;24.50;36.50;;;;;;1486704;40;20032;-61
2021/05/10 01:17:12;;;;;;;1.67;0.93;;;24.50;36.50;;;;;;1490236;39;20473;-61
2021/05/10 01:18:34;;;;;;;3.55;0.93;;;24.50;36.50;;;;;;1491433;39;20051;-59
2021/05/10 01:19:55;;;;;;;2.03;0.85;;;24.50;36.40;;;;;;1491161;39;20067;-61
2021/05/10 01:21:18;;;;;;;2.65;0.73;;;24.50;36.40;;;;;;1491170;39;20363;-60
2021/05/10 01:23:02;;;;;;;1.23;0.75;;;24.50;36.70;;;;;;1489331;39;20056;-60
2021/05/10 01:24:24;;;;;;;2.95;1.13;;;24.50;36.40;;;;;;1489859;39;20040;-59
2021/05/10 01:25:45;;;;;;;1.10;0.82;;;24.50;36.40;;;;;;1491209;39;20016;-60
2021/05/10 01:27:06;;;;;;;1.25;0.93;;;24.50;36.40;;;;;;1490006;39;20040;-60
2021/05/10 01:28:28;;;;;;;2.25;1.30;;;24.50;36.50;;;;;;1490070;39;20503;-56
2021/05/10 01:29:49;;;;;;;3.17;1.13;;;24.50;36.40;;;;;;1489595;39;20024;-61
2021/05/10 01:31:09;;;;;;;2.35;0.90;;;24.50;36.20;;;;;;1488998;39;20024;-60
2021/05/10 01:32:30;;;;;;;1.95;1.00;;;24.50;36.10;;;;;;1490114;39;20357;-60
2021/05/10 01:33:51;;;;;;;4.38;1.05;;;24.40;36.00;;;;;;1490921;39;20095;-61
2021/05/10 01:35:13;;;;;;;1.05;1.02;;;24.40;35.90;;;;;;1490364;39;20076;-60
2021/05/10 01:36:34;;;;;;;3.63;0.95;;;24.50;35.80;;;;;;1491585;39;20506;-61
2021/05/10 01:37:56;;;;;;;0.90;0.90;;;24.50;35.70;;;;;;1488717;39;20032;-59
2021/05/10 01:39:17;;;;;;;2.28;0.75;;;24.50;35.70;;;;;;1491627;39;20099;-59
2021/05/10 01:40:38;;;;;;;2.58;1.15;;;24.50;35.60;;;;;;1491010;39;20038;-60
2021/05/10 01:41:59;;;;;;;1.15;0.85;;;24.50;35.30;;;;;;1491395;39;20360;-60
2021/05/10 01:43:20;;;;;;;0.93;0.77;;;24.50;35.30;;;;;;1491374;39;20060;-60
2021/05/10 01:44:41;;;;;;;1.10;0.80;;;24.60;35.30;;;;;;1489802;39;20365;-59
2021/05/10 01:46:02;;;;;;;2.50;0.85;;;24.60;35.30;;;;;;1492219;39;20361;-59
2021/05/10 01:47:23;;;;;;;1.95;0.80;;;24.60;35.10;;;;;;1489379;39;20027;-60
2021/05/10 01:48:44;;;;;;;0.80;0.80;;;24.60;35.00;;;;;;1492106;39;20028;-61
2021/05/10 01:50:13;;;;;;;3.08;0.93;;;24.70;35.00;;;;;;1490640;39;20032;-61
2021/05/10 01:51:36;;;;;;;0.77;0.77;;;24.70;34.80;;;;;;1487418;40;20047;-61
2021/05/10 01:52:57;;;;;;;1.58;0.77;;;24.70;35.00;;;;;;1488166;39;20097;-61
2021/05/10 01:54:20;;;;;;;0.95;0.80;;;24.80;34.90;;;;;;1491891;39;20246;-61
2021/05/10 01:55:41;;;;;;;0.70;0.68;;;24.80;34.90;;;;;;1491598;39;20230;-61
2021/05/10 01:57:03;;;;;;;0.75;0.60;;;24.80;35.00;;;;;;1489773;39;20036;-61
2021/05/10 01:58:23;;;;;;;2.45;0.90;;;24.80;35.00;;;;;;1491842;39;20412;-60
2021/05/10 01:59:45;;;;;;;0.82;0.80;;;24.80;34.90;;;;;;1489961;39;20064;-60
2021/05/10 02:01:06;;;;;;;1.08;0.98;;;24.80;34.70;;;;;;1489919;39;20052;-61
2021/05/10 02:02:27;;;;;;;1.80;0.90;;;24.90;34.60;;;;;;1490831;39;20089;-60
2021/05/10 02:03:48;;;;;;;1.40;0.98;;;24.90;34.60;;;;;;1490559;39;20348;-61
2021/05/10 02:05:17;;;;;;;0.88;0.77;;;24.90;34.60;;;;;;1492164;39;20042;-60
2021/05/10 02:06:38;;;;;;;0.70;0.55;;;24.90;34.60;;;;;;1489515;39;20046;-60
2021/05/10 02:08:01;;;;;;;0.70;0.70;;;24.90;34.60;;;;;;1489833;39;20067;-60
2021/05/10 02:09:25;;;;;;;1.20;0.75;;;24.90;34.60;;;;;;1489692;39;20060;-61
2021/05/10 02:10:48;;;;;;;2.05;0.80;;;24.90;34.60;;;;;;1489275;39;20023;-61
2021/05/10 02:12:09;;;;;;;1.40;0.80;;;24.90;34.60;;;;;;1491338;39;20062;-61
2021/05/10 02:13:31;;;;;;;2.03;0.95;;;24.90;34.70;;;;;;1491499;39;20120;-61
2021/05/10 02:14:51;;;;;;;0.90;0.75;;;24.90;34.60;;;;;;1491726;39;20361;-61
2021/05/10 02:16:12;;;;;;;0.73;0.60;;;24.90;34.60;;;;;;1492329;39;20026;-59
2021/05/10 02:17:33;;;;;;;1.20;0.63;;;24.90;34.60;;;;;;1491818;39;20043;-59
2021/05/10 02:18:56;;;;;;;0.70;0.60;;;24.90;34.60;;;;;;1490257;39;20027;-61
2021/05/10 02:20:19;;;;;;;2.08;0.90;;;24.90;34.70;;;;;;1490443;39;20279;-60
2021/05/10 02:21:40;;;;;;;1.63;0.90;;;24.90;34.70;;;;;;1490703;39;20047;-60
2021/05/10 02:23:16;;;;;;;1.27;0.70;;;24.90;34.70;;;;;;1488640;39;20016;-60
2021/05/10 02:24:38;;;;;;;0.80;0.80;;;24.90;34.60;;;;;;1491641;39;20047;-61
2021/05/10 02:26:02;;;;;;;0.77;0.75;;;24.90;34.60;;;;;;1491040;39;20025;-61
2021/05/10 02:27:23;;;;;;;1.55;0.80;;;24.90;34.60;;;;;;1491122;39;20450;-61
2021/05/10 02:28:44;;;;;;;1.10;0.85;;;24.90;34.60;;;;;;1490668;39;20032;-61
2021/05/10 02:30:05;;;;;;;0.75;0.70;;;24.90;34.60;;;;;;1492118;39;20035;-58
2021/05/10 02:31:26;;;;;;;0.80;0.70;;;24.90;34.70;;;;;;1492316;39;20028;-61
2021/05/10 02:32:47;;;;;;;1.52;0.90;;;24.90;34.70;;;;;;1490789;39;20345;-60
2021/05/10 02:34:08;;;;;;;1.50;0.57;;;24.90;34.80;;;;;;1491899;39;20030;-61
2021/05/10 02:35:29;;;;;;;0.70;0.70;;;24.80;34.30;;;;;;1490735;39;20024;-61
2021/05/10 02:36:51;;;;;;;0.70;0.70;;;24.80;34.80;;;;;;1490248;39;20067;-61
2021/05/10 02:38:13;;;;;;;2.70;0.70;;;24.80;34.80;;;;;;1483682;40;20028;-61
2021/05/10 02:39:34;;;;;;;1.25;0.80;;;24.80;34.90;;;;;;1484619;40;20043;-61
2021/05/10 02:40:55;;;;;;;0.82;0.80;;;24.80;35.00;;;;;;1487668;39;20057;-61
2021/05/10 02:42:16;;;;;;;1.40;0.63;;;24.80;35.00;;;;;;1491715;39;20287;-61
2021/05/10 02:43:37;;;;;;;2.13;0.93;;;24.80;35.10;;;;;;1491576;39;20293;-61
2021/05/10 02:44:57;;;;;;;0.98;0.90;;;24.80;35.10;;;;;;1491195;39;20028;-61
2021/05/10 02:46:18;;;;;;;1.58;0.80;;;24.80;35.20;;;;;;1489513;39;20024;-61
2021/05/10 02:47:40;;;;;;;1.15;1.00;;;24.80;35.30;;;;;;1491094;39;20028;-61
2021/05/10 02:49:01;;;;;;;1.48;0.85;;;24.80;35.30;;;;;;1491135;39;20024;-62
2021/05/10 02:50:24;;;;;;;2.75;1.00;;;24.80;35.40;;;;;;1490889;39;20050;-60
2021/05/10 02:51:46;;;;;;;0.70;0.70;;;24.70;35.20;;;;;;1489625;39;20040;-61
2021/05/10 02:53:07;;;;;;;1.92;0.93;;;24.70;35.30;;;;;;1489862;39;20032;-59
2021/05/10 02:54:28;;;;;;;2.83;0.90;;;24.70;35.30;;;;;;1491286;39;20035;-61
2021/05/10 02:55:48;;;;;;;0.82;0.80;;;24.70;35.40;;;;;;1490105;39;20067;-61
2021/05/10 02:57:09;;;;;;;1.05;0.70;;;24.70;35.40;;;;;;1492074;39;20108;-61
2021/05/10 02:58:30;;;;;;;1.27;0.80;;;24.70;35.50;;;;;;1491504;39;20031;-60
2021/05/10 02:59:51;;;;;;;1.25;0.75;;;24.60;35.50;;;;;;1491449;39;20349;-61
2021/05/10 03:01:12;;;;;;;2.13;1.02;;;24.60;35.60;;;;;;1489523;39;20025;-61
2021/05/10 03:02:33;;;;;;;2.40;0.80;;;24.60;35.60;;;;;;1491319;39;20031;-60
2021/05/10 03:03:54;;;;;;;2.55;0.77;;;24.50;35.70;;;;;;1491664;39;20264;-61
2021/05/10 03:05:15;;;;;;;3.05;0.70;;;24.50;35.70;;;;;;1490517;39;20028;-60
2021/05/10 03:06:36;;;;;;;1.35;0.80;;;24.50;35.70;;;;;;1490978;39;20032;-60
2021/05/10 03:07:58;;;;;;;1.02;0.93;;;24.50;36.30;;;;;;1490787;39;20060;-61
2021/05/10 03:09:19;;;;;;;0.80;0.80;;;24.50;35.70;;;;;;1491658;39;20038;-61
2021/05/10 03:10:40;;;;;;;1.27;0.98;;;24.50;35.90;;;;;;1489528;39;20046;-61
2021/05/10 03:12:00;;;;;;;0.98;0.70;;;24.50;35.90;;;;;;1490383;39;20028;-60
2021/05/10 03:13:21;;;;;;;2.30;0.90;;;24.40;35.90;;;;;;1491023;39;20402;-60
2021/05/10 03:14:42;;;;;;;3.35;0.80;;;24.40;35.90;;;;;;1490956;39;20076;-60
2021/05/10 03:16:03;;;;;;;0.95;0.90;;;24.40;36.00;;;;;;1490613;39;20103;-59
2021/05/10 03:17:25;;;;;;;2.25;0.95;;;24.40;36.10;;;;;;1490847;39;20028;-60
2021/05/10 03:18:46;;;;;;;1.75;0.90;;;24.30;36.10;;;;;;1491695;39;20024;-61
2021/05/10 03:20:10;;;;;;;2.05;0.93;;;24.30;36.10;;;;;;1490200;39;20039;-60
2021/05/10 03:21:31;;;;;;;1.20;0.85;;;24.30;36.20;;;;;;1490985;39;20476;-61
2021/05/10 03:22:52;;;;;;;1.65;1.00;;;24.30;36.20;;;;;;1489409;39;20028;-59
2021/05/10 03:24:14;;;;;;;0.70;0.70;;;24.30;36.30;;;;;;1490599;39;20396;-60
2021/05/10 03:25:35;;;;;;;0.68;0.68;;;24.30;36.30;;;;;;1490963;39;20288;-60
2021/05/10 03:26:56;;;;;;;1.70;0.80;;;24.20;36.30;;;;;;1490395;39;20322;-60
2021/05/10 03:28:16;;;;;;;0.80;0.80;;;24.20;36.30;;;;;;1491498;39;20043;-61
2021/05/10 03:29:38;;;;;;;1.77;0.70;;;24.20;36.30;;;;;;1487285;40;20091;-59
2021/05/10 03:30:58;;;;;;;1.77;0.95;;;24.20;36.30;;;;;;1489385;39;20034;-60
2021/05/10 03:32:20;;;;;;;1.25;0.82;;;24.20;36.40;;;;;;1490946;39;20036;-60
2021/05/10 03:33:40;;;;;;;1.38;0.85;;;24.20;36.40;;;;;;1490993;39;20383;-60
2021/05/10 03:35:02;;;;;;;0.80;0.65;;;24.20;36.40;;;;;;1491063;39;20062;-60
2021/05/10 03:36:23;;;;;;;1.15;0.80;;;24.20;36.40;;;;;;1491187;39;20035;-60
2021/05/10 03:37:44;;;;;;;1.38;0.82;;;24.20;36.40;;;;;;1489377;39;20117;-61
2021/05/10 03:39:05;;;;;;;0.80;0.80;;;24.20;36.50;;;;;;1490257;39;20020;-60
2021/05/10 03:40:26;;;;;;;1.38;0.88;;;24.20;36.50;;;;;;1490318;39;20040;-60
2021/05/10 03:41:47;;;;;;;1.88;1.00;;;24.20;36.50;;;;;;1490079;39;20020;-61
2021/05/10 03:43:08;;;;;;;1.38;0.80;;;24.20;36.60;;;;;;1490340;39;20024;-60
2021/05/10 03:44:29;;;;;;;0.80;0.60;;;24.20;36.60;;;;;;1491766;39;20032;-60
2021/05/10 03:45:49;;;;;;;1.67;1.02;;;24.20;36.60;;;;;;1489767;39;20024;-60
2021/05/10 03:47:10;;;;;;;1.00;0.90;;;24.20;36.60;;;;;;1491251;39;20028;-60
2021/05/10 03:48:31;;;;;;;1.08;0.73;;;24.20;36.60;;;;;;1491451;39;20047;-59
2021/05/10 03:49:52;;;;;;;1.70;1.00;;;24.20;36.60;;;;;;1490020;39;20093;-61
2021/05/10 03:51:13;;;;;;;1.38;0.90;;;24.20;36.80;;;;;;1491089;39;20032;-61
2021/05/10 03:52:34;;;;;;;1.60;0.70;;;24.20;36.90;;;;;;1490755;39;20032;-60
2021/05/10 03:53:55;;;;;;;1.13;0.95;;;24.10;37.00;;;;;;1488910;39;20113;-60
2021/05/10 03:55:23;;;;;;;2.63;0.95;;;24.10;37.00;;;;;;1490254;39;20031;-61
2021/05/10 03:56:44;;;;;;;2.10;1.10;;;24.10;37.00;;;;;;1489161;39;20039;-60
2021/05/10 03:58:05;;;;;;;2.45;0.88;;;24.20;37.00;;;;;;1489793;39;20114;-61
2021/05/10 03:59:26;;;;;;;1.15;0.85;;;24.10;36.90;;;;;;1491867;39;20561;-60
2021/05/10 04:00:47;;;;;;;1.10;0.82;;;24.10;37.00;;;;;;1491137;39;20071;-60
2021/05/10 04:02:08;;;;;;;1.85;0.90;;;24.10;36.90;;;;;;1489868;39;20021;-60
2021/05/10 04:08:37;;;;;;;2.35;0.80;;;24.10;36.90;;;;;;1489670;39;20035;-61
2021/05/10 04:14:57;;;;;;;1.00;0.90;;;24.10;37.00;;;;;;1491251;39;20270;-60
2021/05/10 04:16:18;;;;;;;2.03;0.82;;;24.10;37.00;;;;;;1491096;39;20473;-61
2021/05/10 04:17:39;;;;;;;3.28;0.98;;;24.10;37.10;;;;;;1491181;39;20024;-60
2021/05/10 04:19:00;;;;;;;1.95;1.23;;;24.10;37.30;;;;;;1486608;40;20379;-60
2021/05/10 04:20:21;;;;;;;0.93;0.93;;;24.10;37.30;;;;;;1489667;39;20032;-61
2021/05/10 04:21:43;;;;;;;1.90;0.90;;;24.10;37.30;;;;;;1489685;39;20599;-60
2021/05/10 04:23:05;;;;;;;1.23;1.00;;;24.10;37.40;;;;;;1490716;39;20060;-59
2021/05/10 04:24:25;;;;;;;1.45;0.70;;;24.10;37.50;;;;;;1490991;39;20028;-59
2021/05/10 04:25:48;;;;;;;1.05;0.80;;;24.10;37.40;;;;;;1489616;39;20023;-60
2021/05/10 04:27:09;;;;;;;1.25;0.85;;;24.00;37.50;;;;;;1491618;39;20031;-60
2021/05/10 04:28:30;;;;;;;0.90;0.90;;;24.00;37.50;;;;;;1491825;39;20036;-60
2021/05/10 04:29:51;;;;;;;1.08;0.95;;;24.00;37.60;;;;;;1491532;39;20020;-60
2021/05/10 04:31:12;;;;;;;1.15;0.80;;;24.00;37.60;;;;;;1489755;39;20036;-60
2021/05/10 04:32:33;;;;;;;2.17;0.80;;;23.90;37.60;;;;;;1490872;39;20031;-60
2021/05/10 04:33:54;;;;;;;0.93;0.88;;;24.00;37.70;;;;;;1487783;40;20050;-59
2021/05/10 04:35:15;;;;;;;2.55;0.88;;;24.00;37.80;;;;;;1486133;40;20680;-60
2021/05/10 04:36:36;;;;;;;1.15;0.70;;;24.00;37.80;;;;;;1487253;40;20040;-59
2021/05/10 04:37:57;;;;;;;0.90;0.90;;;24.00;37.90;;;;;;1485599;39;20062;-59
2021/05/10 04:39:18;;;;;;;1.70;0.80;;;23.90;37.90;;;;;;1487542;39;20032;-60
2021/05/10 04:40:39;;;;;;;1.27;0.82;;;23.90;37.90;;;;;;1486714;39;20054;-59
2021/05/10 04:42:00;;;;;;;0.93;0.85;;;23.90;37.90;;;;;;1485617;40;20045;-61
2021/05/10 04:43:22;;;;;;;0.95;0.82;;;23.90;38.00;;;;;;1487120;40;20030;-61
2021/05/10 04:44:43;;;;;;;1.40;0.98;;;23.90;38.10;;;;;;1485651;39;20032;-61
2021/05/10 04:46:05;;;;;;;1.27;1.17;;;23.90;38.20;;;;;;1485384;40;20365;-60
2021/05/10 04:47:36;;;;;;;1.10;1.00;;;23.90;38.20;;;;;;1485682;40;20407;-59
2021/05/10 04:48:56;;;;;;;1.70;1.10;;;23.90;38.20;;;;;;1485225;40;20641;-59
2021/05/10 04:50:17;;;;;;;0.70;0.70;;;23.90;38.30;;;;;;1486228;40;20073;-61
2021/05/10 04:51:38;;;;;;;1.02;0.88;;;23.90;38.40;;;;;;1485169;40;20138;-61
2021/05/10 04:52:59;;;;;;;1.67;0.90;;;23.90;38.50;;;;;;1484906;39;20185;-55
2021/05/10 04:54:20;;;;;;;2.10;1.10;;;23.90;38.50;;;;;;1485538;39;20362;-60
2021/05/10 04:55:41;;;;;;;2.75;1.20;;;23.90;38.60;;;;;;1481956;40;20025;-60
2021/05/10 04:57:02;;;;;;;1.63;1.10;;;23.90;38.60;;;;;;1484989;40;20036;-59
2021/05/10 04:58:23;;;;;;;1.08;0.85;;;23.90;38.70;;;;;;1486397;40;20435;-60
2021/05/10 04:59:44;;;;;;;1.85;0.75;;;23.80;38.60;;;;;;1485362;40;20028;-59
2021/05/10 05:01:05;;;;;;;1.45;1.15;;;23.80;38.70;;;;;;1486897;40;20072;-58
2021/05/10 05:02:26;;;;;;;1.08;0.80;;;23.80;38.70;;;;;;1484921;40;20037;-59
2021/05/10 05:03:47;;;;;;;0.80;0.80;;;23.80;38.80;;;;;;1485706;40;20313;-59
2021/05/10 05:05:09;;;;;;;1.45;0.90;;;23.80;38.80;;;;;;1486023;39;20025;-60
2021/05/10 05:06:30;;;;;;;2.22;0.90;;;23.80;38.90;;;;;;1485983;40;20040;-59
2021/05/10 05:07:51;;;;;;;0.90;0.90;;;23.80;38.90;;;;;;1484710;40;20024;-60
2021/05/10 05:09:12;;;;;;;2.53;1.40;;;23.80;39.00;;;;;;1486328;39;20040;-59
2021/05/10 05:10:33;;;;;;;1.17;0.80;;;23.70;39.10;;;;;;1487307;39;20405;-58
2021/05/10 05:11:54;;;;;;;1.65;1.00;;;23.70;39.10;;;;;;1484768;40;20024;-59
2021/05/10 05:13:26;;;;;;;1.23;1.00;;;23.70;39.20;;;;;;1483704;40;20024;-59
2021/05/10 05:14:47;;;;;;;1.02;0.85;;;23.70;39.20;;;;;;1485333;40;20055;-60
2021/05/10 05:16:08;;;;;;;1.33;1.00;;;23.70;39.30;;;;;;1485679;40;20020;-58
2021/05/10 05:17:29;;;;;;;1.52;0.90;;;23.70;39.30;;;;;;1484259;40;20040;-60
2021/05/10 05:18:50;;;;;;;1.88;0.95;;;23.70;39.40;;;;;;1485751;40;20349;-60
2021/05/10 05:20:11;;;;;;;1.15;0.82;;;23.70;39.40;;;;;;1486932;40;20335;-60
2021/05/10 05:21:32;;;;;;;0.90;0.90;;;23.70;39.40;;;;;;1485618;39;20040;-60
2021/05/10 05:22:53;;;;;;;2.25;1.17;;;23.70;39.50;;;;;;1484404;39;20024;-60
2021/05/10 05:24:14;;;;;;;1.20;0.80;;;23.70;39.60;;;;;;1486764;40;20021;-59
2021/05/10 05:25:34;;;;;;;1.10;0.85;;;23.70;39.60;;;;;;1485162;40;20024;-60
2021/05/10 05:26:55;;;;;;;1.63;0.90;;;23.70;39.80;;;;;;1484238;40;20032;-60
2021/05/10 05:28:16;;;;;;;3.05;0.88;;;23.70;39.90;;;;;;1486282;40;20024;-59
2021/05/10 05:29:37;;;;;;;1.65;0.90;;;23.60;39.80;;;;;;1484626;39;20052;-60
2021/05/10 05:31:00;;;;;;;1.48;1.02;;;23.70;39.80;;;;;;1486553;40;20029;-59
2021/05/10 05:32:22;;;;;;;2.05;0.90;;;23.60;39.90;;;;;;1486329;40;20051;-59
2021/05/10 05:33:43;;;;;;;2.47;0.98;;;23.60;39.90;;;;;;1486762;40;20408;-60
2021/05/10 05:35:04;;;;;;;0.93;0.80;;;23.60;39.90;;;;;;1480311;40;20036;-58
2021/05/10 05:36:25;;;;;;;1.08;1.00;;;23.60;40.00;;;;;;1485279;40;20024;-60
2021/05/10 05:37:46;;;;;;;3.83;0.85;;;23.60;40.10;;;;;;1484824;40;20020;-60
2021/05/10 05:39:07;;;;;;;1.92;0.90;;;23.60;40.00;;;;;;1486008;39;20036;-60
2021/05/10 05:40:28;;;;;;;1.80;0.80;;;23.60;40.00;;;;;;1486081;39;20057;-60
2021/05/10 05:41:49;;;;;;;1.00;1.00;;;23.60;40.10;;;;;;1485281;40;20370;-59
2021/05/10 05:43:11;;;;;;;0.82;0.82;;;23.60;40.10;;;;;;1484021;40;20116;-59
2021/05/10 05:44:37;;;;;;;1.45;0.90;;;23.50;40.30;;;;;;1483370;40;20045;-59
2021/05/10 05:45:58;;;;;;;2.17;1.10;;;23.50;40.40;;;;;;1481290;40;20061;-60
2021/05/10 05:47:25;;;;;;;2.22;1.00;;;23.50;40.40;;;;;;1480929;40;20110;-60
2021/05/10 05:48:46;;;;;;;1.67;0.80;;;23.50;40.40;;;;;;1485307;40;20062;-60
2021/05/10 05:50:07;;;;;;;1.05;0.90;;;23.50;40.60;;;;;;1486853;40;20225;-61
2021/05/10 05:51:28;;;;;;;2.58;0.80;;;23.50;40.70;;;;;;1484323;40;20059;-59
2021/05/10 05:52:49;;;;;;;0.80;0.80;;;23.50;40.70;;;;;;1485090;40;20025;-60
2021/05/10 05:54:10;;;;;;;0.90;0.88;;;23.50;40.90;;;;;;1486282;40;20028;-60
2021/05/10 05:55:31;;;;;;;3.08;1.20;;;23.50;40.90;;;;;;1486609;40;20062;-60
2021/05/10 05:56:52;;;;;;;1.05;0.93;;;23.40;41.00;;;;;;1486706;40;20369;-60
2021/05/10 05:58:13;;;;;;;2.97;1.10;;;23.40;40.90;;;;;;1486920;40;20064;-60
2021/05/10 05:59:34;;;;;;;1.60;0.90;;;23.40;41.00;;;;;;1485652;40;20048;-59
2021/05/10 06:00:55;;;;;;;1.23;0.93;;;23.40;41.00;;;;;;1480813;40;20351;-59
2021/05/10 06:02:16;;;;;;;2.58;0.70;;;23.40;41.20;;;;;;1483396;40;20618;-59
2021/05/10 06:03:37;;;;;;;1.13;1.00;;;23.40;41.20;;;;;;1486738;40;20079;-59
2021/05/10 06:04:58;;;;;;;4.65;1.10;;;23.40;41.40;;;;;;1486911;40;20361;-61
2021/05/10 06:06:19;;;;;;;1.60;1.15;;;23.40;41.50;;;;;;1483839;40;20068;-58
2021/05/10 06:07:45;;;;;;;2.65;1.30;;;23.40;41.50;;;;;;1486367;40;20161;-59
2021/05/10 06:09:08;;;;;;;1.27;1.13;;;23.40;41.70;;;;;;1486497;40;20028;-59
2021/05/10 06:10:29;;;;;;;1.45;0.90;;;23.40;41.60;;;;;;1485245;40;20074;-60
2021/05/10 06:11:50;;;;;;;2.03;0.85;;;23.40;41.80;;;;;;1485773;40;20028;-60
2021/05/10 06:13:11;;;;;;;2.25;0.90;;;23.40;41.80;;;;;;1485787;40;20028;-59
2021/05/10 06:14:32;;;;;;;1.15;1.00;;;23.40;41.80;;;;;;1482562;40;20504;-59
2021/05/10 06:15:52;;;;;;;1.65;0.80;;;23.30;41.80;;;;;;1484316;40;20043;-60
2021/05/10 06:17:14;;;;;;;2.65;1.13;;;23.30;41.80;;;;;;1486390;40;20028;-59
2021/05/10 06:18:34;;;;;;;2.25;1.00;;;23.30;41.90;;;;;;1487041;40;20043;-59
2021/05/10 06:19:56;;;;;;;2.15;1.08;;;23.30;42.00;;;;;;1487067;40;20032;-59
2021/05/10 06:21:18;;;;;;;2.50;1.00;;;23.30;42.20;;;;;;1487549;40;20044;-59
2021/05/10 06:22:40;;;;;;;1.23;0.93;;;23.30;42.30;;;;;;1486543;40;20874;-59
2021/05/10 06:24:03;;;;;;;2.25;0.90;;;23.30;42.30;;;;;;1487578;40;20051;-60
2021/05/10 06:25:26;;;;;;;2.88;0.95;;;23.30;42.50;;;;;;1485200;40;20766;-59
2021/05/10 06:26:47;;;;;;;0.90;0.90;;;23.30;42.40;;;;;;1487067;40;20113;-60
2021/05/10 06:28:08;;;;;;;1.10;1.00;;;23.30;42.50;;;;;;1486582;40;20028;-59
2021/05/10 06:29:31;;;;;;;1.30;1.13;;;23.30;42.50;;;;;;1485068;40;20037;-60
2021/05/10 06:30:51;;;;;;;1.42;1.30;;;23.30;42.50;;;;;;1485106;40;20028;-60
2021/05/10 06:32:12;;;;;;;1.25;1.15;;;23.30;42.50;;;;;;1485301;40;20137;-59
2021/05/10 06:33:34;;;;;;;1.17;1.08;;;23.30;42.50;;;;;;1487977;39;20277;-59
2021/05/10 06:34:54;;;;;;;1.52;1.00;;;23.30;42.60;;;;;;1483252;40;20048;-60
2021/05/10 06:36:15;;;;;;;1.35;1.02;;;23.30;42.70;;;;;;1484652;40;20041;-59
2021/05/10 06:37:37;;;;;;;1.98;0.93;;;23.30;42.80;;;;;;1485809;40;20060;-58
2021/05/10 06:38:57;;;;;;;4.65;1.30;;;23.40;43.00;;;;;;1487123;40;20369;-59
2021/05/10 06:40:18;;;;;;;1.65;1.20;;;23.40;42.90;;;;;;1487118;39;20043;-60
2021/05/10 06:41:39;;;;;;;2.97;1.10;;;23.40;42.90;;;;;;1486187;40;20366;-59
2021/05/10 06:43:00;;;;;;;1.65;1.33;;;23.30;42.80;;;;;;1486078;40;20032;-58
2021/05/10 06:44:21;;;;;;;3.15;1.13;;;23.30;42.90;;;;;;1487554;40;20040;-60
2021/05/10 06:45:42;;;;;;;0.98;0.98;;;23.30;43.10;;;;;;1486896;40;20422;-60
2021/05/10 06:47:03;;;;;;;2.67;1.10;;;23.40;43.20;;;;;;1486776;40;20028;-59
2021/05/10 06:48:28;;;;;;;1.02;0.85;;;23.40;43.00;;;;;;1487577;40;20055;-59
2021/05/10 06:49:49;;;;;;;2.45;1.10;;;23.40;43.00;;;;;;1486774;40;20062;-59
2021/05/10 06:51:10;;;;;;;1.67;1.08;;;23.40;43.00;;;;;;1485463;40;20028;-59
2021/05/10 06:52:31;;;;;;;1.58;1.10;;;23.40;43.00;;;;;;1486959;40;20032;-60
2021/05/10 06:53:52;;;;;;;1.17;0.70;;;23.40;42.90;;;;;;1481925;40;20033;-58
2021/05/10 06:55:13;;;;;;;0.80;0.70;;;23.40;42.80;;;;;;1482458;40;20025;-59
2021/05/10 06:56:34;;;;;;;0.95;0.80;;;23.40;42.50;;;;;;1487287;40;20028;-61
2021/05/10 06:58:08;;;;;;;2.45;0.73;;;23.40;42.20;;;;;;1486276;40;20052;-59
2021/05/10 06:59:29;;;;;;;1.48;0.50;;;23.40;41.90;;;;;;1488472;39;20046;-59
2021/05/10 07:00:53;;;;;;;1.65;0.60;;;23.50;41.80;;;;;;1482938;40;20029;-60
2021/05/10 07:02:13;;;;;;;0.93;0.35;;;23.50;41.60;;;;;;1484863;40;20028;-59
2021/05/10 07:03:35;;;;;;;1.00;0.45;;;23.50;41.50;;;;;;1487440;40;20047;-60
2021/05/10 07:04:56;;;;;;;1.85;0.50;;;23.50;41.40;;;;;;1487460;40;20028;-60
2021/05/10 07:06:17;;;;;;;0.47;0.40;;;23.50;41.30;;;;;;1486979;40;20036;-59
2021/05/10 07:07:37;;;;;;;0.30;0.30;;;23.50;41.10;;;;;;1485851;40;20039;-59
2021/05/10 07:08:58;;;;;;;1.48;0.47;;;23.50;41.10;;;;;;1487624;40;20039;-56
2021/05/10 07:10:19;;;;;;;0.35;0.35;;;23.40;41.00;;;;;;1487017;40;20024;-59
2021/05/10 07:11:40;;;;;;;0.40;0.40;;;23.40;41.00;;;;;;1486044;40;20044;-60
2021/05/10 07:13:01;;;;;;;0.50;0.20;;;23.40;41.00;;;;;;1487060;39;20040;-59
2021/05/10 07:14:22;;;;;;;0.30;0.30;;;23.40;41.00;;;;;;1487301;40;20322;-58
2021/05/10 07:15:44;;;;;;;0.55;0.32;;;23.40;41.00;;;;;;1486976;39;20034;-59